Time;durP1;ratioP1;P1;durP2;ratioP2;P2;SDS_P1;SDS_P2;PMS_P1;PMS_P2;Temp;Humidity;BMP_temperature;BMP_pressure;BME280_temperature;BME280_humidity;BME280_pressure;Samples;Min_cycle;Max_cycle;Signal;HPM_P1;HPM_P2
2023/06/28 00:01:12;;;;;;;;;;;;;;;;;;5044232;28;19994;-61
2023/06/28 00:03:42;;;;;;;;;;;;;;;;;;5058036;28;19927;-61
2023/06/28 00:06:08;;;;;;;;;;;;;;;;;;5050466;28;20482;-62
2023/06/28 00:08:33;;;;;;;;;;;;;;;;;;5033158;28;20054;-60
2023/06/28 00:14:15;;;;;;;;;;;;;;;;;;5044459;28;20711;-61
2023/06/28 00:16:40;;;;;;;;;;;;;;;;;;5049194;28;19932;-61
2023/06/28 00:19:08;;;;;;;;;;;;;;;;;;5046223;28;20011;-61
2023/06/28 00:21:33;;;;;;;;;;;;;;;;;;5042557;28;20682;-62
2023/06/28 00:24:00;;;;;;;;;;;;;;;;;;5047664;28;20352;-61
2023/06/28 00:26:26;;;;;;;;;;;;;;;;;;5048155;28;19923;-61
2023/06/28 00:28:51;;;;;;;;;;;;;;;;;;5033739;28;19947;-60
2023/06/28 00:31:17;;;;;;;;;;;;;;;;;;5060127;28;19920;-60
2023/06/28 00:33:45;;;;;;;;;;;;;;;;;;5044219;28;19920;-62
2023/06/28 00:36:11;;;;;;;;;;;;;;;;;;5028456;28;20079;-60
2023/06/28 00:38:36;;;;;;;;;;;;;;;;;;5046912;28;20861;-61
2023/06/28 00:41:01;;;;;;;;;;;;;;;;;;5029771;28;20446;-60
2023/06/28 00:43:27;;;;;;;;;;;;;;;;;;5031040;28;19920;-61
2023/06/28 00:45:52;;;;;;;;;;;;;;;;;;5043700;28;19920;-61
2023/06/28 00:48:17;;;;;;;;;;;;;;;;;;5045389;28;20274;-60
2023/06/28 00:50:45;;;;;;;;;;;;;;;;;;5060210;28;19917;-61
2023/06/28 00:53:10;;;;;;;;;;;;;;;;;;5056731;28;20062;-61
2023/06/28 00:55:36;;;;;;;;;;;;;;;;;;5046228;28;19921;-61
2023/06/28 01:00:48;;;;;;;;;;;;;;;;;;5058600;28;20379;-61
2023/06/28 01:03:17;;;;;;;;;;;;;;;;;;5040103;28;19917;-61
2023/06/28 01:05:45;;;;;;;;;;;;;;;;;;5058839;28;20479;-60
2023/06/28 01:08:11;;;;;;;;;;;;;;;;;;5042856;28;19920;-62
2023/06/28 01:13:30;;;;;;;;;;;;;;;;;;5044308;28;20129;-62
2023/06/28 01:15:55;;;;;;;;;;;;;;;;;;5041860;28;21243;-61
2023/06/28 01:18:23;;;;;;;;;;;;;;;;;;5031603;28;19963;-61
2023/06/28 01:20:54;;;;;;;;;;;;;;;;;;5044909;28;20003;-60
2023/06/28 01:23:19;;;;;;;;;;;;;;;;;;5045698;28;20559;-61
2023/06/28 01:25:45;;;;;;;;;;;;;;;;;;5043833;28;19920;-60
2023/06/28 01:28:13;;;;;;;;;;;;;;;;;;5057971;28;19930;-61
2023/06/28 01:30:39;;;;;;;;;;;;;;;;;;5042055;28;19923;-62
2023/06/28 01:33:04;;;;;;;;;;;;;;;;;;5042944;28;19921;-61
2023/06/28 01:35:32;;;;;;;;;;;;;;;;;;5043656;28;20063;-61
2023/06/28 01:37:58;;;;;;;;;;;;;;;;;;5030204;28;21167;-61
2023/06/28 01:40:27;;;;;;;;;;;;;;;;;;5042535;28;19920;-61
2023/06/28 01:42:53;;;;;;;;;;;;;;;;;;5050274;28;20757;-60
2023/06/28 01:45:18;;;;;;;;;;;;;;;;;;5042736;28;19951;-60
2023/06/28 01:47:43;;;;;;;;;;;;;;;;;;5044224;28;20018;-61
2023/06/28 01:50:09;;;;;;;;;;;;;;;;;;5037728;28;20403;-60
2023/06/28 01:52:34;;;;;;;;;;;;;;;;;;5044034;28;21888;-60
2023/06/28 01:54:59;;;;;;;;;;;;;;;;;;5044844;28;20553;-61
2023/06/28 01:57:28;;;;;;;;;;;;;;;;;;5045129;28;19924;-59
2023/06/28 01:59:59;;;;;;;;;;;;;;;;;;5046568;28;19916;-61
2023/06/28 02:02:27;;;;;;;;;;;;;;;;;;5030036;28;19917;-60
2023/06/28 02:04:53;;;;;;;;;;;;;;;;;;5064057;28;19959;-60
2023/06/28 02:07:21;;;;;;;;;;;;;;;;;;5061669;28;20007;-61
2023/06/28 02:09:46;;;;;;;;;;;;;;;;;;5033770;28;19954;-60
2023/06/28 02:12:11;;;;;;;;;;;;;;;;;;5062450;28;20383;-59
2023/06/28 02:14:39;;;;;;;;;;;;;;;;;;5050604;28;19940;-60
2023/06/28 02:17:13;;;;;;;;;;;;;;;;;;5047208;28;19917;-60
2023/06/28 02:19:41;;;;;;;;;;;;;;;;;;5046742;28;19923;-61
2023/06/28 02:22:07;;;;;;;;;;;;;;;;;;5035303;28;19916;-61
2023/06/28 02:24:34;;;;;;;;;;;;;;;;;;5051876;28;19920;-60
2023/06/28 02:27:00;;;;;;;;;;;;;;;;;;5032468;28;20005;-61
2023/06/28 02:29:25;;;;;;;;;;;;;;;;;;5044564;28;19921;-60
2023/06/28 02:31:50;;;;;;;;;;;;;;;;;;5043978;28;19942;-60
2023/06/28 02:34:15;;;;;;;;;;;;;;;;;;5043828;28;19970;-60
2023/06/28 02:36:41;;;;;;;;;;;;;;;;;;5045147;28;19920;-61
2023/06/28 02:39:06;;;;;;;;;;;;;;;;;;5058670;28;19978;-61
2023/06/28 02:41:31;;;;;;;;;;;;;;;;;;5054754;28;19917;-60
2023/06/28 02:43:59;;;;;;;;;;;;;;;;;;5061842;28;19960;-60
2023/06/28 02:46:25;;;;;;;;;;;;;;;;;;5045278;28;20004;-60
2023/06/28 02:48:50;;;;;;;;;;;;;;;;;;5046428;28;20288;-61
2023/06/28 02:51:15;;;;;;;;;;;;;;;;;;5045802;28;19920;-60
2023/06/28 02:53:43;;;;;;;;;;;;;;;;;;5047209;28;19931;-60
2023/06/28 02:56:12;;;;;;;;;;;;;;;;;;5043274;28;19916;-60
2023/06/28 02:58:37;;;;;;;;;;;;;;;;;;5043112;28;19928;-61
2023/06/28 03:01:03;;;;;;;;;;;;;;;;;;5030596;28;19920;-61
2023/06/28 03:03:33;;;;;;;;;;;;;;;;;;5061024;28;20039;-61
2023/06/28 03:05:58;;;;;;;;;;;;;;;;;;5043961;28;19920;-61
2023/06/28 03:08:24;;;;;;;;;;;;;;;;;;5032262;28;19971;-62
2023/06/28 03:10:52;;;;;;;;;;;;;;;;;;5045064;28;20001;-61
2023/06/28 03:13:20;;;;;;;;;;;;;;;;;;5046181;28;19952;-61
2023/06/28 03:15:45;;;;;;;;;;;;;;;;;;5045161;28;19959;-61
2023/06/28 03:18:10;;;;;;;;;;;;;;;;;;5048613;28;19927;-60
2023/06/28 03:20:36;;;;;;;;;;;;;;;;;;5043581;28;19923;-61
2023/06/28 03:23:04;;;;;;;;;;;;;;;;;;5029245;28;19920;-60
2023/06/28 03:25:34;;;;;;;;;;;;;;;;;;5035222;28;20011;-60
2023/06/28 03:27:59;;;;;;;;;;;;;;;;;;5031577;28;20543;-61
2023/06/28 03:30:30;;;;;;;;;;;;;;;;;;5040814;28;19994;-61
2023/06/28 03:32:55;;;;;;;;;;;;;;;;;;5045059;28;19923;-61
2023/06/28 03:35:23;;;;;;;;;;;;;;;;;;5058939;28;20705;-62
2023/06/28 03:37:49;;;;;;;;;;;;;;;;;;5048146;28;19925;-62
2023/06/28 03:40:14;;;;;;;;;;;;;;;;;;5044787;28;19931;-61
2023/06/28 03:42:40;;;;;;;;;;;;;;;;;;5060128;28;19916;-60
2023/06/28 03:45:07;;;;;;;;;;;;;;;;;;5042960;28;19921;-61
2023/06/28 03:47:35;;;;;;;;;;;;;;;;;;5058657;28;20005;-62
2023/06/28 03:50:01;;;;;;;;;;;;;;;;;;5045737;28;19938;-62
2023/06/28 03:52:26;;;;;;;;;;;;;;;;;;5060454;28;20018;-62
2023/06/28 03:54:52;;;;;;;;;;;;;;;;;;5032269;28;19924;-62
2023/06/28 03:57:17;;;;;;;;;;;;;;;;;;5044687;28;19966;-63
2023/06/28 03:59:42;;;;;;;;;;;;;;;;;;5031892;28;19920;-62
2023/06/28 04:02:08;;;;;;;;;;;;;;;;;;5045076;28;20344;-61
2023/06/28 04:04:33;;;;;;;;;;;;;;;;;;5048951;28;20087;-61
2023/06/28 04:07:01;;;;;;;;;;;;;;;;;;5031674;28;19921;-60
2023/06/28 04:09:26;;;;;;;;;;;;;;;;;;5045303;28;19917;-61
2023/06/28 04:11:51;;;;;;;;;;;;;;;;;;5046483;28;19921;-61
2023/06/28 04:14:17;;;;;;;;;;;;;;;;;;5041849;28;20026;-62
2023/06/28 04:16:45;;;;;;;;;;;;;;;;;;5060358;28;19955;-61
2023/06/28 04:19:15;;;;;;;;;;;;;;;;;;5046095;28;19923;-61
2023/06/28 04:21:40;;;;;;;;;;;;;;;;;;5041941;28;19920;-61
2023/06/28 04:24:05;;;;;;;;;;;;;;;;;;5046420;28;19924;-62
2023/06/28 04:26:33;;;;;;;;;;;;;;;;;;5043369;28;19920;-61
2023/06/28 04:29:02;;;;;;;;;;;;;;;;;;5034349;28;19935;-61
2023/06/28 04:31:27;;;;;;;;;;;;;;;;;;5042597;28;19917;-61
2023/06/28 04:33:59;;;;;;;;;;;;;;;;;;5044338;28;19920;-62
2023/06/28 04:36:25;;;;;;;;;;;;;;;;;;5046111;28;20587;-63
2023/06/28 04:38:56;;;;;;;;;;;;;;;;;;4995003;28;1838192;-62
2023/06/28 04:41:21;;;;;;;;;;;;;;;;;;5055353;28;19920;-64
2023/06/28 04:43:46;;;;;;;;;;;;;;;;;;5045626;28;19924;-64
2023/06/28 04:46:14;;;;;;;;;;;;;;;;;;5045941;28;20134;-63
2023/06/28 04:48:39;;;;;;;;;;;;;;;;;;5044335;28;20438;-63
2023/06/28 04:51:07;;;;;;;;;;;;;;;;;;5048533;28;22320;-63
2023/06/28 04:53:35;;;;;;;;;;;;;;;;;;5044999;28;19955;-62
2023/06/28 04:56:04;;;;;;;;;;;;;;;;;;5047373;28;19928;-65
2023/06/28 04:58:29;;;;;;;;;;;;;;;;;;5043971;28;19920;-63
2023/06/28 05:00:56;;;;;;;;;;;;;;;;;;5043734;28;19921;-64
2023/06/28 05:03:26;;;;;;;;;;;;;;;;;;5028124;28;20106;-64
2023/06/28 05:05:51;;;;;;;;;;;;;;;;;;5041105;28;20975;-64
2023/06/28 05:08:20;;;;;;;;;;;;;;;;;;5058411;28;20013;-64
2023/06/28 05:10:50;;;;;;;;;;;;;;;;;;5041459;28;19923;-63
2023/06/28 05:13:15;;;;;;;;;;;;;;;;;;5047779;28;20145;-63
2023/06/28 05:15:41;;;;;;;;;;;;;;;;;;5042050;28;19917;-64
2023/06/28 05:18:06;;;;;;;;;;;;;;;;;;5049895;28;20403;-65
2023/06/28 05:20:32;;;;;;;;;;;;;;;;;;5048096;28;19921;-65
2023/06/28 05:22:59;;;;;;;;;;;;;;;;;;5050287;28;19925;-64
2023/06/28 05:25:25;;;;;;;;;;;;;;;;;;5035880;28;19921;-64
2023/06/28 05:27:53;;;;;;;;;;;;;;;;;;5047018;28;19933;-64
2023/06/28 05:30:18;;;;;;;;;;;;;;;;;;5043908;28;19923;-64
2023/06/28 05:32:43;;;;;;;;;;;;;;;;;;5045035;28;19929;-64
2023/06/28 05:35:13;;;;;;;;;;;;;;;;;;5032471;28;19931;-66
2023/06/28 05:37:42;;;;;;;;;;;;;;;;;;5049652;28;19920;-65
2023/06/28 05:40:10;;;;;;;;;;;;;;;;;;5048346;28;19916;-65
2023/06/28 05:42:35;;;;;;;;;;;;;;;;;;5042566;28;19932;-63
2023/06/28 05:45:01;;;;;;;;;;;;;;;;;;5035824;28;19921;-64
2023/06/28 05:47:29;;;;;;;;;;;;;;;;;;5034929;28;19921;-64
2023/06/28 05:49:57;;;;;;;;;;;;;;;;;;5047195;28;19916;-65
2023/06/28 05:52:23;;;;;;;;;;;;;;;;;;5047714;28;19921;-64
2023/06/28 05:54:48;;;;;;;;;;;;;;;;;;5034554;28;19970;-66
2023/06/28 05:57:14;;;;;;;;;;;;;;;;;;5051535;28;19921;-62
2023/06/28 05:59:39;;;;;;;;;;;;;;;;;;5048206;28;20011;-63
2023/06/28 06:02:04;;;;;;;;;;;;;;;;;;5045109;28;20662;-64
2023/06/28 06:04:32;;;;;;;;;;;;;;;;;;5048823;28;19967;-64
2023/06/28 06:06:58;;;;;;;;;;;;;;;;;;5050124;28;19942;-63
2023/06/28 06:09:23;;;;;;;;;;;;;;;;;;5035439;28;20054;-63
2023/06/28 06:11:51;;;;;;;;;;;;;;;;;;5048762;28;19966;-64
2023/06/28 06:14:18;;;;;;;;;;;;;;;;;;5048975;28;19939;-65
2023/06/28 06:16:46;;;;;;;;;;;;;;;;;;5046299;28;19920;-64
2023/06/28 06:19:12;;;;;;;;;;;;;;;;;;5044375;28;19920;-64
2023/06/28 06:21:37;;;;;;;;;;;;;;;;;;5048646;28;19952;-66
2023/06/28 06:24:07;;;;;;;;;;;;;;;;;;5047428;28;20208;-65
2023/06/28 06:26:49;;;;;;;;;;;;;;;;;;5050504;28;19920;-64
2023/06/28 06:29:14;;;;;;;;;;;;;;;;;;5034231;28;20668;-65
2023/06/28 06:31:40;;;;;;;;;;;;;;;;;;5060323;28;19943;-65
2023/06/28 06:34:08;;;;;;;;;;;;;;;;;;5060587;28;19924;-65
2023/06/28 06:36:36;;;;;;;;;;;;;;;;;;5030765;28;19920;-63
2023/06/28 06:39:07;;;;;;;;;;;;;;;;;;5049993;28;19929;-66
2023/06/28 06:41:33;;;;;;;;;;;;;;;;;;5061654;28;19997;-63
2023/06/28 06:43:58;;;;;;;;;;;;;;;;;;5046802;28;19960;-65
2023/06/28 06:46:26;;;;;;;;;;;;;;;;;;5048335;28;19921;-68
2023/06/28 06:48:58;;;;;;;;;;;;;;;;;;5062298;28;19946;-67
2023/06/28 06:51:23;;;;;;;;;;;;;;;;;;5048658;28;19928;-69
2023/06/28 06:53:54;;;;;;;;;;;;;;;;;;5034383;28;20035;-68
2023/06/28 06:56:20;;;;;;;;;;;;;;;;;;5058784;28;20932;-66
2023/06/28 06:58:45;;;;;;;;;;;;;;;;;;5044640;28;19917;-66
2023/06/28 07:01:11;;;;;;;;;;;;;;;;;;5043673;28;19985;-69
2023/06/28 07:03:36;;;;;;;;;;;;;;;;;;5036495;28;19942;-68
2023/06/28 07:06:02;;;;;;;;;;;;;;;;;;5046432;28;20905;-69
2023/06/28 07:08:33;;;;;;;;;;;;;;;;;;5034033;28;19956;-69
2023/06/28 07:10:59;;;;;;;;;;;;;;;;;;5045496;28;20047;-68
2023/06/28 07:13:27;;;;;;;;;;;;;;;;;;5047678;28;19965;-67
2023/06/28 07:15:52;;;;;;;;;;;;;;;;;;5048530;28;19920;-66
2023/06/28 07:18:17;;;;;;;;;;;;;;;;;;5061868;28;20033;-68
2023/06/28 07:20:47;;;;;;;;;;;;;;;;;;5048557;28;19965;-66
2023/06/28 07:23:12;;;;;;;;;;;;;;;;;;5049865;28;19931;-66
2023/06/28 07:25:38;;;;;;;;;;;;;;;;;;5061870;28;19917;-67
2023/06/28 07:28:06;;;;;;;;;;;;;;;;;;5036222;28;19963;-66
2023/06/28 07:30:32;;;;;;;;;;;;;;;;;;5033630;28;20012;-65
2023/06/28 07:32:57;;;;;;;;;;;;;;;;;;5058684;28;20011;-67
2023/06/28 07:35:25;;;;;;;;;;;;;;;;;;5047163;28;19917;-67
2023/06/28 07:37:53;;;;;;;;;;;;;;;;;;5044060;28;20622;-67
2023/06/28 07:40:18;;;;;;;;;;;;;;;;;;5062979;28;20047;-67
2023/06/28 07:42:43;;;;;;;;;;;;;;;;;;5045697;28;19920;-68
2023/06/28 07:45:09;;;;;;;;;;;;;;;;;;5033512;28;21216;-69
2023/06/28 07:47:36;;;;;;;;;;;;;;;;;;5040809;28;20426;-68
2023/06/28 07:50:01;;;;;;;;;;;;;;;;;;5044000;28;20544;-68
2023/06/28 07:52:27;;;;;;;;;;;;;;;;;;5045687;28;19920;-68
2023/06/28 07:54:56;;;;;;;;;;;;;;;;;;5035168;28;20002;-68
2023/06/28 07:57:28;;;;;;;;;;;;;;;;;;5045955;28;19920;-67
2023/06/28 07:59:54;;;;;;;;;;;;;;;;;;5043844;28;19939;-68
2023/06/28 08:02:19;;;;;;;;;;;;;;;;;;5047614;28;20383;-67
2023/06/28 08:04:45;;;;;;;;;;;;;;;;;;5047606;28;19950;-68
2023/06/28 08:07:10;;;;;;;;;;;;;;;;;;5062710;28;19974;-68
2023/06/28 08:09:38;;;;;;;;;;;;;;;;;;5045472;28;19929;-68
2023/06/28 08:12:06;;;;;;;;;;;;;;;;;;5048014;28;19913;-68
2023/06/28 08:14:35;;;;;;;;;;;;;;;;;;5048865;28;20007;-68
2023/06/28 08:17:11;;;;;;;;;;;;;;;;;;5034644;28;19912;-68
2023/06/28 08:19:37;;;;;;;;;;;;;;;;;;5060926;28;20236;-67
2023/06/28 08:22:09;;;;;;;;;;;;;;;;;;5046319;28;19917;-67
2023/06/28 08:24:34;;;;;;;;;;;;;;;;;;5045590;28;19916;-67
2023/06/28 08:27:03;;;;;;;;;;;;;;;;;;5056649;28;20425;-68
2023/06/28 08:29:29;;;;;;;;;;;;;;;;;;5034037;28;19978;-68
2023/06/28 08:31:57;;;;;;;;;;;;;;;;;;5031516;28;19916;-69
2023/06/28 08:34:24;;;;;;;;;;;;;;;;;;5036355;28;20019;-70
2023/06/28 08:36:49;;;;;;;;;;;;;;;;;;5048773;28;19920;-71
2023/06/28 08:39:16;;;;;;;;;;;;;;;;;;5043841;28;19935;-71
2023/06/28 08:41:41;;;;;;;;;;;;;;;;;;5064426;28;19916;-73
2023/06/28 08:44:12;;;;;;;;;;;;;;;;;;5045264;28;20027;-71
2023/06/28 08:46:37;;;;;;;;;;;;;;;;;;5050288;28;19916;-68
2023/06/28 08:49:03;;;;;;;;;;;;;;;;;;5064976;28;19924;-70
2023/06/28 08:51:31;;;;;;;;;;;;;;;;;;5050112;28;19916;-69
2023/06/28 08:53:56;;;;;;;;;;;;;;;;;;5036325;28;19923;-68
2023/06/28 08:56:22;;;;;;;;;;;;;;;;;;5048851;28;19916;-69
2023/06/28 08:58:48;;;;;;;;;;;;;;;;;;5064482;28;19917;-67
2023/06/28 09:01:16;;;;;;;;;;;;;;;;;;5046683;28;19955;-67
2023/06/28 09:03:45;;;;;;;;;;;;;;;;;;5032995;28;19916;-68
2023/06/28 09:06:13;;;;;;;;;;;;;;;;;;5045930;28;19927;-68
2023/06/28 09:08:38;;;;;;;;;;;;;;;;;;5032342;28;19921;-68
2023/06/28 09:11:03;;;;;;;;;;;;;;;;;;5062951;28;19924;-67
2023/06/28 09:13:32;;;;;;;;;;;;;;;;;;5046389;28;19923;-67
2023/06/28 09:16:00;;;;;;;;;;;;;;;;;;5046893;28;20003;-69
2023/06/28 09:18:28;;;;;;;;;;;;;;;;;;5047623;28;19920;-69
2023/06/28 09:20:54;;;;;;;;;;;;;;;;;;5051470;28;19940;-70
2023/06/28 09:23:53;;;;;;;;;;;;;;;;;;;;;
2023/06/28 09:26:18;;;;;;;;;;;;;;;;;;5047954;28;19916;-71
2023/06/28 09:28:43;;;;;;;;;;;;;;;;;;5048543;28;20025;-71
2023/06/28 09:31:09;;;;;;;;;;;;;;;;;;5044196;28;19916;-73
2023/06/28 09:33:34;;;;;;;;;;;;;;;;;;5033708;28;19976;-72
2023/06/28 09:36:02;;;;;;;;;;;;;;;;;;5046458;28;19916;-72
2023/06/28 09:38:27;;;;;;;;;;;;;;;;;;5044418;28;19928;-72
2023/06/28 09:40:56;;;;;;;;;;;;;;;;;;5044507;28;19927;-72
2023/06/28 09:43:22;;;;;;;;;;;;;;;;;;5047448;28;19920;-72
2023/06/28 09:45:47;;;;;;;;;;;;;;;;;;5060987;28;19927;-70
2023/06/28 09:48:13;;;;;;;;;;;;;;;;;;5045368;28;19920;-68
2023/06/28 09:50:38;;;;;;;;;;;;;;;;;;5045686;28;19969;-73
2023/06/28 09:53:03;;;;;;;;;;;;;;;;;;5040520;28;19928;-71
2023/06/28 09:55:29;;;;;;;;;;;;;;;;;;5047206;28;19921;-74
2023/06/28 09:57:54;;;;;;;;;;;;;;;;;;5035285;28;19959;-72
2023/06/28 10:00:20;;;;;;;;;;;;;;;;;;5059442;28;20563;-72
2023/06/28 10:02:48;;;;;;;;;;;;;;;;;;5046811;28;19920;-73
2023/06/28 10:05:13;;;;;;;;;;;;;;;;;;5046860;28;20614;-73
2023/06/28 10:07:40;;;;;;;;;;;;;;;;;;5039287;28;19968;-71
2023/06/28 10:10:08;;;;;;;;;;;;;;;;;;5055170;28;19920;-68
2023/06/28 10:12:33;;;;;;;;;;;;;;;;;;5045964;28;19997;-76
2023/06/28 10:15:02;;;;;;;;;;;;;;;;;;5043085;28;20007;-72
2023/06/28 10:17:31;;;;;;;;;;;;;;;;;;5044073;28;19920;-74
2023/06/28 10:19:56;;;;;;;;;;;;;;;;;;5057746;28;19921;-73
2023/06/28 10:22:28;;;;;;;;;;;;;;;;;;5046594;28;19921;-71
2023/06/28 10:24:56;;;;;;;;;;;;;;;;;;5051298;28;19929;-73
2023/06/28 10:27:21;;;;;;;;;;;;;;;;;;5048159;28;19921;-72
2023/06/28 10:29:47;;;;;;;;;;;;;;;;;;5049180;28;19917;-72
2023/06/28 10:32:13;;;;;;;;;;;;;;;;;;5046583;28;19978;-73
2023/06/28 10:34:38;;;;;;;;;;;;;;;;;;5043221;28;20328;-70
2023/06/28 10:37:03;;;;;;;;;;;;;;;;;;5049207;28;19942;-74
2023/06/28 10:39:29;;;;;;;;;;;;;;;;;;5060209;28;19917;-73
2023/06/28 10:41:54;;;;;;;;;;;;;;;;;;5049622;28;19939;-74
2023/06/28 10:44:19;;;;;;;;;;;;;;;;;;5048591;28;19920;-74
2023/06/28 10:46:45;;;;;;;;;;;;;;;;;;5049326;28;20974;-74
2023/06/28 10:49:10;;;;;;;;;;;;;;;;;;5055358;28;20027;-74
2023/06/28 10:51:35;;;;;;;;;;;;;;;;;;5051223;28;20374;-74
2023/06/28 10:54:03;;;;;;;;;;;;;;;;;;5054332;28;19918;-72
2023/06/28 10:56:29;;;;;;;;;;;;;;;;;;5062706;28;19936;-68
2023/06/28 10:58:54;;;;;;;;;;;;;;;;;;5049985;28;20007;-72
2023/06/28 11:01:19;;;;;;;;;;;;;;;;;;5046969;28;19939;-72
2023/06/28 11:03:45;;;;;;;;;;;;;;;;;;5048449;28;20842;-73
2023/06/28 11:06:12;;;;;;;;;;;;;;;;;;5049935;28;20011;-72
2023/06/28 11:08:38;;;;;;;;;;;;;;;;;;5060645;28;19924;-70
2023/06/28 11:11:06;;;;;;;;;;;;;;;;;;5050806;28;20414;-74
2023/06/28 11:13:35;;;;;;;;;;;;;;;;;;5066769;28;19921;-74
2023/06/28 11:16:00;;;;;;;;;;;;;;;;;;5063702;28;20379;-73
2023/06/28 11:18:28;;;;;;;;;;;;;;;;;;5055053;28;20023;-73
2023/06/28 11:20:53;;;;;;;;;;;;;;;;;;5050244;28;20443;-72
2023/06/28 11:23:19;;;;;;;;;;;;;;;;;;5043281;28;19924;-72
2023/06/28 11:25:44;;;;;;;;;;;;;;;;;;5052560;28;19997;-72
2023/06/28 11:28:12;;;;;;;;;;;;;;;;;;5062237;28;19925;-72
2023/06/28 11:30:38;;;;;;;;;;;;;;;;;;5045811;28;20411;-73
2023/06/28 11:33:05;;;;;;;;;;;;;;;;;;5047228;28;19962;-73
2023/06/28 11:35:30;;;;;;;;;;;;;;;;;;5033830;28;19920;-73
2023/06/28 11:37:55;;;;;;;;;;;;;;;;;;5061581;28;19986;-71
2023/06/28 11:40:21;;;;;;;;;;;;;;;;;;5048781;28;19920;-72
2023/06/28 11:42:51;;;;;;;;;;;;;;;;;;5046651;28;19921;-73
2023/06/28 11:45:16;;;;;;;;;;;;;;;;;;5048102;28;19920;-72
2023/06/28 11:47:41;;;;;;;;;;;;;;;;;;5037668;28;19924;-73
2023/06/28 11:50:07;;;;;;;;;;;;;;;;;;5062385;28;19950;-72
2023/06/28 11:52:32;;;;;;;;;;;;;;;;;;5049227;28;20007;-72
2023/06/28 11:54:57;;;;;;;;;;;;;;;;;;5047182;28;19921;-72
2023/06/28 11:57:32;;;;;;;;;;;;;;;;;;5048823;28;19923;-73
2023/06/28 11:59:57;;;;;;;;;;;;;;;;;;5052004;28;20011;-71
2023/06/28 12:02:22;;;;;;;;;;;;;;;;;;5053175;28;19920;-72
2023/06/28 12:04:53;;;;;;;;;;;;;;;;;;5048626;28;20389;-72
2023/06/28 12:07:19;;;;;;;;;;;;;;;;;;5068746;28;19913;-72
2023/06/28 12:09:47;;;;;;;;;;;;;;;;;;5053643;28;19920;-72
2023/06/28 12:12:12;;;;;;;;;;;;;;;;;;5063904;28;20050;-72
2023/06/28 12:14:37;;;;;;;;;;;;;;;;;;5058192;28;20495;-72
2023/06/28 12:17:03;;;;;;;;;;;;;;;;;;5061492;28;20001;-70
2023/06/28 12:19:29;;;;;;;;;;;;;;;;;;5052637;28;19916;-71
2023/06/28 12:21:56;;;;;;;;;;;;;;;;;;5053426;28;19958;-72
2023/06/28 12:24:22;;;;;;;;;;;;;;;;;;5067381;28;19921;-71
2023/06/28 12:26:47;;;;;;;;;;;;;;;;;;5052891;28;19928;-72
2023/06/28 12:29:13;;;;;;;;;;;;;;;;;;5048492;28;20855;-71
2023/06/28 12:31:40;;;;;;;;;;;;;;;;;;5055191;28;20413;-73
2023/06/28 12:34:05;;;;;;;;;;;;;;;;;;5067149;28;19921;-71
2023/06/28 12:36:31;;;;;;;;;;;;;;;;;;5068063;28;19964;-71
2023/06/28 12:39:06;;;;;;;;;;;;;;;;;;5039561;28;19935;-74
2023/06/28 12:41:31;;;;;;;;;;;;;;;;;;5051826;28;20308;-71
2023/06/28 12:43:59;;;;;;;;;;;;;;;;;;5050581;28;19947;-71
2023/06/28 12:46:25;;;;;;;;;;;;;;;;;;5051737;28;19921;-72
2023/06/28 12:48:50;;;;;;;;;;;;;;;;;;5053819;28;19931;-71
2023/06/28 12:51:16;;;;;;;;;;;;;;;;;;5053753;28;20015;-71
2023/06/28 12:53:42;;;;;;;;;;;;;;;;;;5035932;28;19920;-71
2023/06/28 12:56:07;;;;;;;;;;;;;;;;;;5036743;28;20304;-72
2023/06/28 12:58:33;;;;;;;;;;;;;;;;;;5034586;28;19921;-68
2023/06/28 13:00:58;;;;;;;;;;;;;;;;;;5063909;28;19916;-70
2023/06/28 13:03:25;;;;;;;;;;;;;;;;;;5048461;28;19927;-71
2023/06/28 13:05:53;;;;;;;;;;;;;;;;;;5051992;28;20041;-68
2023/06/28 13:08:19;;;;;;;;;;;;;;;;;;5029766;28;19928;-70
2023/06/28 13:10:44;;;;;;;;;;;;;;;;;;5047493;28;20031;-70
2023/06/28 13:13:10;;;;;;;;;;;;;;;;;;5059770;28;19926;-71
2023/06/28 13:15:36;;;;;;;;;;;;;;;;;;5042566;28;19917;-70
2023/06/28 13:18:01;;;;;;;;;;;;;;;;;;5047937;28;19978;-71
2023/06/28 13:20:26;;;;;;;;;;;;;;;;;;5046157;28;19916;-72
2023/06/28 13:22:52;;;;;;;;;;;;;;;;;;5044139;28;20113;-70
2023/06/28 13:25:17;;;;;;;;;;;;;;;;;;5041655;28;20024;-72
2023/06/28 13:27:43;;;;;;;;;;;;;;;;;;5031396;28;19928;-70
2023/06/28 13:30:08;;;;;;;;;;;;;;;;;;5047237;28;19917;-68
2023/06/28 13:32:33;;;;;;;;;;;;;;;;;;5043383;28;20005;-73
2023/06/28 13:35:01;;;;;;;;;;;;;;;;;;5039701;28;19955;-74
2023/06/28 13:37:30;;;;;;;;;;;;;;;;;;5045418;28;20456;-72
2023/06/28 13:39:55;;;;;;;;;;;;;;;;;;5062285;28;19920;-71
2023/06/28 13:42:22;;;;;;;;;;;;;;;;;;5032297;28;19920;-74
2023/06/28 13:44:47;;;;;;;;;;;;;;;;;;5033473;28;19926;-72
2023/06/28 13:47:12;;;;;;;;;;;;;;;;;;5042815;28;20255;-73
2023/06/28 13:49:38;;;;;;;;;;;;;;;;;;5030148;28;19924;-73
2023/06/28 13:52:06;;;;;;;;;;;;;;;;;;5033186;28;20015;-73
2023/06/28 13:54:31;;;;;;;;;;;;;;;;;;5044230;28;19916;-72
2023/06/28 13:56:57;;;;;;;;;;;;;;;;;;5034961;28;19944;-73
2023/06/28 13:59:24;;;;;;;;;;;;;;;;;;5050541;28;20354;-72
2023/06/28 14:01:50;;;;;;;;;;;;;;;;;;5050107;28;19916;-72
2023/06/28 14:04:15;;;;;;;;;;;;;;;;;;5065462;28;19920;-73
2023/06/28 14:06:40;;;;;;;;;;;;;;;;;;5044922;28;21123;-73
2023/06/28 14:09:06;;;;;;;;;;;;;;;;;;5049710;28;19995;-73
2023/06/28 14:11:31;;;;;;;;;;;;;;;;;;5048700;28;20411;-71
2023/06/28 14:13:59;;;;;;;;;;;;;;;;;;5052458;28;20903;-71
2023/06/28 14:16:24;;;;;;;;;;;;;;;;;;5048399;28;19921;-73
2023/06/28 14:18:49;;;;;;;;;;;;;;;;;;5064594;28;19928;-73
2023/06/28 14:21:15;;;;;;;;;;;;;;;;;;5051717;28;19969;-73
2023/06/28 14:23:40;;;;;;;;;;;;;;;;;;5043127;28;20492;-73
2023/06/28 14:26:05;;;;;;;;;;;;;;;;;;5044560;28;20000;-73
2023/06/28 14:28:31;;;;;;;;;;;;;;;;;;5048293;28;19931;-73
2023/06/28 14:30:56;;;;;;;;;;;;;;;;;;5048788;28;19967;-72
2023/06/28 14:33:21;;;;;;;;;;;;;;;;;;5048868;28;19922;-73
2023/06/28 14:35:49;;;;;;;;;;;;;;;;;;5049473;28;19928;-72
2023/06/28 14:38:14;;;;;;;;;;;;;;;;;;5050555;28;19924;-72
2023/06/28 14:40:40;;;;;;;;;;;;;;;;;;5062322;28;20833;-73
2023/06/28 14:43:05;;;;;;;;;;;;;;;;;;5047558;28;20821;-72
2023/06/28 14:45:31;;;;;;;;;;;;;;;;;;5050050;28;19920;-72
2023/06/28 14:47:56;;;;;;;;;;;;;;;;;;5063397;28;19977;-73
2023/06/28 14:50:21;;;;;;;;;;;;;;;;;;5032134;28;20383;-72
2023/06/28 14:52:47;;;;;;;;;;;;;;;;;;5041538;28;19925;-72
2023/06/28 14:55:12;;;;;;;;;;;;;;;;;;5046799;28;19917;-72
2023/06/28 14:57:37;;;;;;;;;;;;;;;;;;5048381;28;19927;-72
2023/06/28 15:00:03;;;;;;;;;;;;;;;;;;5046800;28;20027;-71
2023/06/28 15:02:28;;;;;;;;;;;;;;;;;;5059982;28;20699;-74
2023/06/28 15:04:53;;;;;;;;;;;;;;;;;;5044322;28;19920;-72
2023/06/28 15:07:19;;;;;;;;;;;;;;;;;;5055972;28;19920;-73
2023/06/28 15:09:44;;;;;;;;;;;;;;;;;;5046485;28;20058;-70
2023/06/28 15:12:10;;;;;;;;;;;;;;;;;;5047985;28;19916;-73
2023/06/28 15:14:38;;;;;;;;;;;;;;;;;;5048224;28;20031;-73
2023/06/28 15:17:06;;;;;;;;;;;;;;;;;;5046938;28;20810;-74
2023/06/28 15:19:33;;;;;;;;;;;;;;;;;;5045222;28;20406;-75
2023/06/28 15:22:02;;;;;;;;;;;;;;;;;;5034052;28;19923;-74
2023/06/28 15:24:27;;;;;;;;;;;;;;;;;;5045871;28;19920;-73
2023/06/28 15:26:53;;;;;;;;;;;;;;;;;;5034837;28;20321;-74
2023/06/28 15:29:19;;;;;;;;;;;;;;;;;;5047154;28;20727;-76
2023/06/28 15:31:44;;;;;;;;;;;;;;;;;;5060233;28;20024;-74
2023/06/28 15:34:09;;;;;;;;;;;;;;;;;;5046015;28;19927;-74
2023/06/28 15:36:37;;;;;;;;;;;;;;;;;;5031193;28;19927;-73
2023/06/28 15:39:02;;;;;;;;;;;;;;;;;;5049743;28;19933;-75
2023/06/28 15:41:28;;;;;;;;;;;;;;;;;;5046801;28;19975;-73
2023/06/28 15:43:53;;;;;;;;;;;;;;;;;;5047907;28;20600;-71
2023/06/28 15:46:18;;;;;;;;;;;;;;;;;;5047468;28;20007;-74
2023/06/28 15:48:44;;;;;;;;;;;;;;;;;;5032440;28;19935;-72
2023/06/28 15:51:09;;;;;;;;;;;;;;;;;;5047632;28;20019;-74
2023/06/28 15:53:34;;;;;;;;;;;;;;;;;;5044997;28;19926;-74
2023/06/28 15:56:00;;;;;;;;;;;;;;;;;;5044266;28;19917;-74
2023/06/28 15:58:26;;;;;;;;;;;;;;;;;;5048845;28;19921;-74
2023/06/28 16:00:56;;;;;;;;;;;;;;;;;;5032058;28;19917;-74
2023/06/28 16:03:22;;;;;;;;;;;;;;;;;;5047952;28;20191;-73
2023/06/28 16:05:47;;;;;;;;;;;;;;;;;;5045596;28;20559;-72
2023/06/28 16:08:12;;;;;;;;;;;;;;;;;;5046077;28;20031;-71
2023/06/28 16:10:40;;;;;;;;;;;;;;;;;;5043220;28;19916;-72
2023/06/28 16:13:08;;;;;;;;;;;;;;;;;;5041147;28;19920;-74
2023/06/28 16:15:33;;;;;;;;;;;;;;;;;;5060536;28;20391;-72
2023/06/28 16:18:02;;;;;;;;;;;;;;;;;;5041342;28;19932;-74
2023/06/28 16:20:27;;;;;;;;;;;;;;;;;;5061431;28;20810;-76
2023/06/28 16:22:52;;;;;;;;;;;;;;;;;;5043833;28;19926;-73
2023/06/28 16:25:18;;;;;;;;;;;;;;;;;;5027869;28;19969;-71
2023/06/28 16:27:46;;;;;;;;;;;;;;;;;;5043789;28;20037;-71
2023/06/28 16:30:12;;;;;;;;;;;;;;;;;;5044333;28;20046;-71
2023/06/28 16:32:37;;;;;;;;;;;;;;;;;;5027452;28;19950;-71
2023/06/28 16:35:02;;;;;;;;;;;;;;;;;;5043649;28;20849;-70
2023/06/28 16:37:30;;;;;;;;;;;;;;;;;;5042317;28;19921;-71
2023/06/28 16:39:55;;;;;;;;;;;;;;;;;;5030156;28;19928;-71
2023/06/28 16:42:21;;;;;;;;;;;;;;;;;;5042959;28;19920;-72
2023/06/28 16:44:46;;;;;;;;;;;;;;;;;;5045920;28;19920;-71
2023/06/28 16:47:11;;;;;;;;;;;;;;;;;;5052315;28;19920;-71
2023/06/28 16:49:36;;;;;;;;;;;;;;;;;;5043926;28;19924;-71